sensor_id;sensor_type;location;lat;lon;timestamp;pressure;altitude;pressure_sealevel;temperature;humidity
38630;BME280;24384;51.988;4.644;2023-06-19T00:01:25;100821.28;;;20.57;67.71
38630;BME280;24384;51.988;4.644;2023-06-19T00:03:50;100807.38;;;20.52;68.42
38630;BME280;24384;51.988;4.644;2023-06-19T00:06:16;100813.72;;;20.51;68.13
38630;BME280;24384;51.988;4.644;2023-06-19T00:08:41;100810.16;;;20.51;68.52
38630;BME280;24384;51.988;4.644;2023-06-19T00:11:07;100814.69;;;20.50;68.91
38630;BME280;24384;51.988;4.644;2023-06-19T00:13:33;100823.28;;;20.43;69.41
38630;BME280;24384;51.988;4.644;2023-06-19T00:15:59;100826.47;;;20.48;69.51
38630;BME280;24384;51.988;4.644;2023-06-19T00:18:25;100827.38;;;20.35;70.09
38630;BME280;24384;51.988;4.644;2023-06-19T00:20:51;100826.53;;;20.35;70.15
38630;BME280;24384;51.988;4.644;2023-06-19T00:23:18;100827.22;;;20.26;71.17
38630;BME280;24384;51.988;4.644;2023-06-19T00:25:43;100823.41;;;20.17;71.85
38630;BME280;24384;51.988;4.644;2023-06-19T00:28:09;100831.09;;;19.97;73.11
38630;BME280;24384;51.988;4.644;2023-06-19T00:30:37;100841.25;;;19.92;73.14
38630;BME280;24384;51.988;4.644;2023-06-19T00:33:04;100845.47;;;19.83;73.96
38630;BME280;24384;51.988;4.644;2023-06-19T00:35:30;100841.69;;;19.86;74.14
38630;BME280;24384;51.988;4.644;2023-06-19T00:37:55;100845.66;;;19.93;74.17
38630;BME280;24384;51.988;4.644;2023-06-19T00:40:28;100846.16;;;19.98;74.45
38630;BME280;24384;51.988;4.644;2023-06-19T00:42:54;100838.72;;;19.78;74.99
38630;BME280;24384;51.988;4.644;2023-06-19T00:45:20;100846.44;;;19.70;76.61
38630;BME280;24384;51.988;4.644;2023-06-19T00:47:45;100848.56;;;19.64;76.58
38630;BME280;24384;51.988;4.644;2023-06-19T00:50:11;100857.56;;;19.63;76.77
38630;BME280;24384;51.988;4.644;2023-06-19T00:52:37;100858.09;;;19.68;76.71
38630;BME280;24384;51.988;4.644;2023-06-19T00:55:04;100851.44;;;19.61;77.18
38630;BME280;24384;51.988;4.644;2023-06-19T00:57:30;100853.19;;;19.62;77.20
38630;BME280;24384;51.988;4.644;2023-06-19T00:59:57;100854.16;;;19.48;77.89
38630;BME280;24384;51.988;4.644;2023-06-19T01:02:22;100846.84;;;19.50;78.95
38630;BME280;24384;51.988;4.644;2023-06-19T01:04:49;100856.72;;;19.50;78.77
38630;BME280;24384;51.988;4.644;2023-06-19T01:07:22;100859.41;;;19.37;80.70
38630;BME280;24384;51.988;4.644;2023-06-19T01:09:57;100864.19;;;19.32;81.62
38630;BME280;24384;51.988;4.644;2023-06-19T01:12:30;100861.19;;;19.37;81.87
38630;BME280;24384;51.988;4.644;2023-06-19T01:14:59;100859.06;;;19.29;82.81
38630;BME280;24384;51.988;4.644;2023-06-19T01:17:29;100854.16;;;19.36;81.87
38630;BME280;24384;51.988;4.644;2023-06-19T01:19:56;100853.28;;;19.35;81.69
38630;BME280;24384;51.988;4.644;2023-06-19T01:22:26;100866.13;;;19.43;82.22
38630;BME280;24384;51.988;4.644;2023-06-19T01:24:51;100860.69;;;19.31;82.21
38630;BME280;24384;51.988;4.644;2023-06-19T01:27:17;100850.19;;;19.28;83.20
38630;BME280;24384;51.988;4.644;2023-06-19T01:29:44;100862.28;;;19.21;84.08
38630;BME280;24384;51.988;4.644;2023-06-19T01:32:16;100861.63;;;19.18;84.49
38630;BME280;24384;51.988;4.644;2023-06-19T01:34:43;100860.56;;;19.20;84.56
38630;BME280;24384;51.988;4.644;2023-06-19T01:37:10;100857.38;;;19.28;84.74
38630;BME280;24384;51.988;4.644;2023-06-19T01:39:36;100860.47;;;19.22;84.89
38630;BME280;24384;51.988;4.644;2023-06-19T01:42:04;100859.69;;;19.20;85.05
38630;BME280;24384;51.988;4.644;2023-06-19T01:44:30;100852.78;;;19.17;85.40
38630;BME280;24384;51.988;4.644;2023-06-19T01:46:55;100854.69;;;19.28;85.09
38630;BME280;24384;51.988;4.644;2023-06-19T01:49:20;100849.03;;;19.32;85.47
38630;BME280;24384;51.988;4.644;2023-06-19T01:51:46;100855.97;;;19.22;86.00
38630;BME280;24384;51.988;4.644;2023-06-19T01:54:11;100843.34;;;19.24;85.82
38630;BME280;24384;51.988;4.644;2023-06-19T01:56:37;100850.09;;;19.30;85.63
38630;BME280;24384;51.988;4.644;2023-06-19T01:59:02;100846.91;;;19.25;85.61
38630;BME280;24384;51.988;4.644;2023-06-19T02:01:27;100847.22;;;19.20;85.83
38630;BME280;24384;51.988;4.644;2023-06-19T02:03:53;100846.78;;;19.26;85.78
38630;BME280;24384;51.988;4.644;2023-06-19T02:06:18;100854.59;;;19.29;85.67
38630;BME280;24384;51.988;4.644;2023-06-19T02:08:43;100866.25;;;19.28;86.13
38630;BME280;24384;51.988;4.644;2023-06-19T02:11:09;100860.16;;;19.26;86.17
38630;BME280;24384;51.988;4.644;2023-06-19T02:13:34;100862.63;;;19.29;85.69
38630;BME280;24384;51.988;4.644;2023-06-19T02:15:59;100860.78;;;19.30;86.32
38630;BME280;24384;51.988;4.644;2023-06-19T02:18:24;100860.34;;;19.36;86.90
38630;BME280;24384;51.988;4.644;2023-06-19T02:20:49;100866.97;;;19.30;88.04
38630;BME280;24384;51.988;4.644;2023-06-19T02:23:15;100852.31;;;19.10;90.60
38630;BME280;24384;51.988;4.644;2023-06-19T02:25:40;100853.94;;;19.13;90.50
38630;BME280;24384;51.988;4.644;2023-06-19T02:28:05;100853.81;;;19.14;90.89
38630;BME280;24384;51.988;4.644;2023-06-19T02:30:31;100863.13;;;19.09;91.91
38630;BME280;24384;51.988;4.644;2023-06-19T02:32:56;100886.63;;;19.04;92.73
38630;BME280;24384;51.988;4.644;2023-06-19T02:35:21;100866.00;;;19.06;93.60
38630;BME280;24384;51.988;4.644;2023-06-19T02:37:46;100866.31;;;19.01;94.72
38630;BME280;24384;51.988;4.644;2023-06-19T02:40:12;100880.41;;;18.90;96.06
38630;BME280;24384;51.988;4.644;2023-06-19T02:42:38;100883.06;;;18.90;96.65
38630;BME280;24384;51.988;4.644;2023-06-19T02:45:03;100888.91;;;18.83;97.24
38630;BME280;24384;51.988;4.644;2023-06-19T02:47:32;100885.47;;;18.81;98.39
38630;BME280;24384;51.988;4.644;2023-06-19T02:50:02;100889.06;;;18.67;98.73
38630;BME280;24384;51.988;4.644;2023-06-19T02:52:29;100887.25;;;18.67;99.06
38630;BME280;24384;51.988;4.644;2023-06-19T02:54:54;100892.06;;;18.62;99.89
38630;BME280;24384;51.988;4.644;2023-06-19T02:57:20;100900.81;;;18.64;98.10
38630;BME280;24384;51.988;4.644;2023-06-19T02:59:45;100904.16;;;18.68;98.37
38630;BME280;24384;51.988;4.644;2023-06-19T03:02:11;100905.53;;;18.73;98.08
38630;BME280;24384;51.988;4.644;2023-06-19T03:04:36;100909.53;;;18.81;98.35
38630;BME280;24384;51.988;4.644;2023-06-19T03:07:02;100902.97;;;18.72;98.25
38630;BME280;24384;51.988;4.644;2023-06-19T03:09:28;100920.19;;;18.68;98.46
38630;BME280;24384;51.988;4.644;2023-06-19T03:11:53;100919.78;;;18.74;98.15
38630;BME280;24384;51.988;4.644;2023-06-19T03:14:18;100924.34;;;18.72;97.26
38630;BME280;24384;51.988;4.644;2023-06-19T03:16:43;100925.88;;;18.76;96.32
38630;BME280;24384;51.988;4.644;2023-06-19T03:19:09;100922.44;;;18.74;96.41
38630;BME280;24384;51.988;4.644;2023-06-19T03:21:34;100922.78;;;18.82;96.62
38630;BME280;24384;51.988;4.644;2023-06-19T03:24:00;100930.81;;;18.82;96.12
38630;BME280;24384;51.988;4.644;2023-06-19T03:26:26;100941.16;;;18.74;95.08
38630;BME280;24384;51.988;4.644;2023-06-19T03:28:51;100934.09;;;18.73;95.06
38630;BME280;24384;51.988;4.644;2023-06-19T03:31:16;100938.00;;;18.67;94.83
38630;BME280;24384;51.988;4.644;2023-06-19T03:33:42;100948.88;;;18.64;94.60
38630;BME280;24384;51.988;4.644;2023-06-19T03:36:07;100941.75;;;18.65;94.43
38630;BME280;24384;51.988;4.644;2023-06-19T03:38:32;100945.38;;;18.64;94.16
38630;BME280;24384;51.988;4.644;2023-06-19T03:40:58;100954.22;;;18.64;94.07
38630;BME280;24384;51.988;4.644;2023-06-19T03:43:24;100967.50;;;18.66;94.08
38630;BME280;24384;51.988;4.644;2023-06-19T03:45:49;100967.50;;;18.66;93.78
38630;BME280;24384;51.988;4.644;2023-06-19T03:48:15;100971.13;;;18.65;94.21
38630;BME280;24384;51.988;4.644;2023-06-19T03:50:41;100980.00;;;18.65;94.01
38630;BME280;24384;51.988;4.644;2023-06-19T03:53:06;100980.09;;;18.64;94.35
38630;BME280;24384;51.988;4.644;2023-06-19T03:55:32;100990.59;;;18.67;93.82
38630;BME280;24384;51.988;4.644;2023-06-19T03:57:57;100983.91;;;18.59;93.04
38630;BME280;24384;51.988;4.644;2023-06-19T04:00:22;101001.09;;;18.55;93.59
38630;BME280;24384;51.988;4.644;2023-06-19T04:02:47;101001.75;;;18.59;93.45
38630;BME280;24384;51.988;4.644;2023-06-19T04:05:14;101003.28;;;18.49;92.82
38630;BME280;24384;51.988;4.644;2023-06-19T04:07:40;101006.06;;;18.47;93.38
38630;BME280;24384;51.988;4.644;2023-06-19T04:10:06;101014.75;;;18.36;94.16
38630;BME280;24384;51.988;4.644;2023-06-19T04:12:31;101016.31;;;18.26;94.97
38630;BME280;24384;51.988;4.644;2023-06-19T04:14:56;101019.38;;;18.20;95.03
38630;BME280;24384;51.988;4.644;2023-06-19T04:17:22;101027.47;;;18.18;95.04
38630;BME280;24384;51.988;4.644;2023-06-19T04:19:47;101037.94;;;18.21;95.39
38630;BME280;24384;51.988;4.644;2023-06-19T04:22:13;101037.16;;;18.19;95.23
38630;BME280;24384;51.988;4.644;2023-06-19T04:24:38;101038.53;;;18.12;95.19
38630;BME280;24384;51.988;4.644;2023-06-19T04:27:05;101039.94;;;18.03;95.40
38630;BME280;24384;51.988;4.644;2023-06-19T04:29:33;101048.03;;;18.02;94.88
38630;BME280;24384;51.988;4.644;2023-06-19T04:31:59;101051.81;;;17.98;94.83
38630;BME280;24384;51.988;4.644;2023-06-19T04:34:24;101056.97;;;18.01;94.62
38630;BME280;24384;51.988;4.644;2023-06-19T04:36:51;101055.56;;;18.10;93.72
38630;BME280;24384;51.988;4.644;2023-06-19T04:39:18;101062.53;;;18.12;93.91
38630;BME280;24384;51.988;4.644;2023-06-19T04:41:43;101066.63;;;18.03;93.31
38630;BME280;24384;51.988;4.644;2023-06-19T04:44:09;101064.13;;;18.00;93.40
38630;BME280;24384;51.988;4.644;2023-06-19T04:46:36;101067.09;;;17.96;93.38
38630;BME280;24384;51.988;4.644;2023-06-19T04:49:02;101071.06;;;17.88;93.71
38630;BME280;24384;51.988;4.644;2023-06-19T04:51:30;101078.03;;;17.91;93.94
38630;BME280;24384;51.988;4.644;2023-06-19T04:53:57;101089.75;;;17.88;94.22
38630;BME280;24384;51.988;4.644;2023-06-19T04:56:22;101083.19;;;17.94;93.29
38630;BME280;24384;51.988;4.644;2023-06-19T04:58:48;101087.84;;;17.91;93.04
38630;BME280;24384;51.988;4.644;2023-06-19T05:01:14;101086.03;;;17.91;92.76
38630;BME280;24384;51.988;4.644;2023-06-19T05:03:40;101082.16;;;17.97;92.35
38630;BME280;24384;51.988;4.644;2023-06-19T05:06:06;101087.31;;;18.00;91.80
38630;BME280;24384;51.988;4.644;2023-06-19T05:08:31;101088.72;;;17.91;92.24
38630;BME280;24384;51.988;4.644;2023-06-19T05:10:56;101092.13;;;17.93;92.56
38630;BME280;24384;51.988;4.644;2023-06-19T05:13:23;101096.44;;;17.96;91.79
38630;BME280;24384;51.988;4.644;2023-06-19T05:15:48;101101.78;;;17.96;92.22
38630;BME280;24384;51.988;4.644;2023-06-19T05:18:14;101090.06;;;17.98;91.55
38630;BME280;24384;51.988;4.644;2023-06-19T05:20:39;101100.56;;;18.01;91.72
38630;BME280;24384;51.988;4.644;2023-06-19T05:23:04;101109.41;;;18.02;91.51
38630;BME280;24384;51.988;4.644;2023-06-19T05:25:30;101104.25;;;17.99;91.68
38630;BME280;24384;51.988;4.644;2023-06-19T05:27:55;101108.56;;;18.01;91.62
38630;BME280;24384;51.988;4.644;2023-06-19T05:30:20;101117.13;;;18.06;91.47
38630;BME280;24384;51.988;4.644;2023-06-19T05:32:46;101123.41;;;18.05;90.86
38630;BME280;24384;51.988;4.644;2023-06-19T05:35:11;101127.63;;;18.10;90.81
38630;BME280;24384;51.988;4.644;2023-06-19T05:37:36;101124.13;;;18.09;90.45
38630;BME280;24384;51.988;4.644;2023-06-19T05:40:04;101135.44;;;18.13;90.97
38630;BME280;24384;51.988;4.644;2023-06-19T05:42:30;101132.13;;;18.23;90.61
38630;BME280;24384;51.988;4.644;2023-06-19T05:44:56;101143.00;;;18.20;89.11
38630;BME280;24384;51.988;4.644;2023-06-19T05:47:21;101137.75;;;18.19;89.78
38630;BME280;24384;51.988;4.644;2023-06-19T05:49:49;101140.59;;;18.16;89.96
38630;BME280;24384;51.988;4.644;2023-06-19T05:52:14;101144.66;;;18.07;90.18
38630;BME280;24384;51.988;4.644;2023-06-19T05:54:40;101144.59;;;18.08;89.74
38630;BME280;24384;51.988;4.644;2023-06-19T05:57:05;101145.47;;;18.09;88.08
38630;BME280;24384;51.988;4.644;2023-06-19T05:59:31;101161.22;;;17.98;88.23
38630;BME280;24384;51.988;4.644;2023-06-19T06:01:56;101159.09;;;18.04;88.48
38630;BME280;24384;51.988;4.644;2023-06-19T06:04:21;101158.34;;;18.17;88.60
38630;BME280;24384;51.988;4.644;2023-06-19T06:06:47;101167.97;;;18.19;88.25
38630;BME280;24384;51.988;4.644;2023-06-19T06:09:12;101172.53;;;18.17;87.69
38630;BME280;24384;51.988;4.644;2023-06-19T06:11:38;101170.91;;;18.15;87.71
38630;BME280;24384;51.988;4.644;2023-06-19T06:14:03;101177.50;;;18.09;87.13
38630;BME280;24384;51.988;4.644;2023-06-19T06:16:31;101183.59;;;18.11;87.35
38630;BME280;24384;51.988;4.644;2023-06-19T06:18:56;101186.53;;;18.06;88.00
38630;BME280;24384;51.988;4.644;2023-06-19T06:21:21;101190.94;;;18.07;88.37
38630;BME280;24384;51.988;4.644;2023-06-19T06:23:47;101191.22;;;18.17;88.34
38630;BME280;24384;51.988;4.644;2023-06-19T06:26:14;101200.53;;;18.10;87.29
38630;BME280;24384;51.988;4.644;2023-06-19T06:28:39;101207.97;;;18.05;87.45
38630;BME280;24384;51.988;4.644;2023-06-19T06:31:05;101198.66;;;18.12;87.61
38630;BME280;24384;51.988;4.644;2023-06-19T06:33:30;101207.91;;;18.21;87.64
38630;BME280;24384;51.988;4.644;2023-06-19T06:35:57;101208.78;;;18.21;88.05
38630;BME280;24384;51.988;4.644;2023-06-19T06:38:23;101220.25;;;18.38;87.15
38630;BME280;24384;51.988;4.644;2023-06-19T06:40:48;101208.06;;;18.34;86.58
38630;BME280;24384;51.988;4.644;2023-06-19T06:43:14;101215.06;;;18.20;87.17
38630;BME280;24384;51.988;4.644;2023-06-19T06:45:39;101225.09;;;18.31;86.28
38630;BME280;24384;51.988;4.644;2023-06-19T06:48:06;101211.50;;;18.36;86.63
38630;BME280;24384;51.988;4.644;2023-06-19T06:50:32;101225.38;;;18.57;85.85
38630;BME280;24384;51.988;4.644;2023-06-19T06:52:57;101239.19;;;18.64;85.60
38630;BME280;24384;51.988;4.644;2023-06-19T06:55:22;101238.72;;;18.71;85.13
38630;BME280;24384;51.988;4.644;2023-06-19T06:57:48;101240.94;;;18.79;84.41
38630;BME280;24384;51.988;4.644;2023-06-19T07:00:13;101243.78;;;18.76;84.91
38630;BME280;24384;51.988;4.644;2023-06-19T07:02:38;101252.81;;;18.89;84.89
38630;BME280;24384;51.988;4.644;2023-06-19T07:05:10;101256.63;;;18.85;85.34
38630;BME280;24384;51.988;4.644;2023-06-19T07:07:36;101267.31;;;19.00;83.04
38630;BME280;24384;51.988;4.644;2023-06-19T07:10:01;101266.09;;;18.91;82.67
38630;BME280;24384;51.988;4.644;2023-06-19T07:12:27;101264.88;;;18.81;83.02
38630;BME280;24384;51.988;4.644;2023-06-19T07:14:55;101269.56;;;18.77;82.75
38630;BME280;24384;51.988;4.644;2023-06-19T07:17:21;101263.63;;;18.72;83.92
38630;BME280;24384;51.988;4.644;2023-06-19T07:19:48;101264.50;;;18.72;83.61
38630;BME280;24384;51.988;4.644;2023-06-19T07:22:14;101263.72;;;18.70;82.72
38630;BME280;24384;51.988;4.644;2023-06-19T07:24:42;101262.72;;;18.87;83.08
38630;BME280;24384;51.988;4.644;2023-06-19T07:27:07;101264.25;;;18.91;81.50
38630;BME280;24384;51.988;4.644;2023-06-19T07:29:33;101266.75;;;18.94;81.71
38630;BME280;24384;51.988;4.644;2023-06-19T07:31:58;101266.09;;;19.05;81.64
38630;BME280;24384;51.988;4.644;2023-06-19T07:34:26;101271.06;;;18.97;80.74
38630;BME280;24384;51.988;4.644;2023-06-19T07:36:51;101275.31;;;18.85;82.37
38630;BME280;24384;51.988;4.644;2023-06-19T07:39:16;101280.19;;;18.93;82.57
38630;BME280;24384;51.988;4.644;2023-06-19T07:41:41;101284.34;;;18.83;82.68
38630;BME280;24384;51.988;4.644;2023-06-19T07:44:07;101273.63;;;18.99;83.16
38630;BME280;24384;51.988;4.644;2023-06-19T07:46:32;101264.25;;;19.06;84.04
38630;BME280;24384;51.988;4.644;2023-06-19T07:48:57;101275.34;;;19.00;84.72
38630;BME280;24384;51.988;4.644;2023-06-19T07:51:23;101276.41;;;19.11;85.65
38630;BME280;24384;51.988;4.644;2023-06-19T07:53:48;101283.72;;;19.37;82.81
38630;BME280;24384;51.988;4.644;2023-06-19T07:56:13;101273.19;;;19.62;81.66
38630;BME280;24384;51.988;4.644;2023-06-19T07:58:38;101281.13;;;19.64;81.62
38630;BME280;24384;51.988;4.644;2023-06-19T08:01:04;101282.47;;;19.57;81.91
38630;BME280;24384;51.988;4.644;2023-06-19T08:03:29;101293.06;;;19.58;80.29
38630;BME280;24384;51.988;4.644;2023-06-19T08:05:55;101294.53;;;19.49;81.18
38630;BME280;24384;51.988;4.644;2023-06-19T08:08:21;101294.78;;;19.59;80.35
38630;BME280;24384;51.988;4.644;2023-06-19T08:10:46;101294.59;;;19.62;81.32
38630;BME280;24384;51.988;4.644;2023-06-19T08:13:11;101291.63;;;19.67;81.12
38630;BME280;24384;51.988;4.644;2023-06-19T08:15:37;101294.50;;;19.78;80.37
38630;BME280;24384;51.988;4.644;2023-06-19T08:18:02;101293.63;;;19.78;81.28
38630;BME280;24384;51.988;4.644;2023-06-19T08:20:28;101298.91;;;19.65;80.75
38630;BME280;24384;51.988;4.644;2023-06-19T08:22:53;101303.19;;;19.67;81.78
38630;BME280;24384;51.988;4.644;2023-06-19T08:25:18;101317.44;;;19.68;79.97
38630;BME280;24384;51.988;4.644;2023-06-19T08:27:44;101322.78;;;19.54;79.45
38630;BME280;24384;51.988;4.644;2023-06-19T08:30:10;101327.75;;;19.60;78.34
38630;BME280;24384;51.988;4.644;2023-06-19T08:32:36;101331.78;;;19.53;79.00
38630;BME280;24384;51.988;4.644;2023-06-19T08:35:01;101338.19;;;19.36;80.54
38630;BME280;24384;51.988;4.644;2023-06-19T08:37:26;101336.94;;;19.12;81.75
38630;BME280;24384;51.988;4.644;2023-06-19T08:39:52;101336.94;;;19.27;81.95
38630;BME280;24384;51.988;4.644;2023-06-19T08:42:17;101337.78;;;19.27;80.89
38630;BME280;24384;51.988;4.644;2023-06-19T08:44:42;101343.88;;;19.15;81.67
38630;BME280;24384;51.988;4.644;2023-06-19T08:47:08;101338.72;;;19.12;83.05
38630;BME280;24384;51.988;4.644;2023-06-19T08:49:35;101335.31;;;19.39;83.28
38630;BME280;24384;51.988;4.644;2023-06-19T08:52:04;101331.41;;;19.30;81.69
38630;BME280;24384;51.988;4.644;2023-06-19T08:54:29;101329.09;;;19.53;82.21
38630;BME280;24384;51.988;4.644;2023-06-19T08:56:55;101329.97;;;19.53;80.46
38630;BME280;24384;51.988;4.644;2023-06-19T08:59:20;101332.91;;;19.63;80.47
38630;BME280;24384;51.988;4.644;2023-06-19T09:01:47;101330.72;;;19.55;81.71
38630;BME280;24384;51.988;4.644;2023-06-19T09:04:24;101338.34;;;19.90;78.69
38630;BME280;24384;51.988;4.644;2023-06-19T09:06:56;101330.38;;;20.30;80.78
38630;BME280;24384;51.988;4.644;2023-06-19T09:09:24;101340.88;;;20.33;78.05
38630;BME280;24384;51.988;4.644;2023-06-19T09:12:07;101343.59;;;20.46;77.06
38630;BME280;24384;51.988;4.644;2023-06-19T09:14:34;101356.28;;;20.57;78.44
38630;BME280;24384;51.988;4.644;2023-06-19T09:17:04;101352.28;;;20.77;75.44
38630;BME280;24384;51.988;4.644;2023-06-19T09:19:30;101351.69;;;20.59;75.87
38630;BME280;24384;51.988;4.644;2023-06-19T09:22:01;101354.72;;;20.67;77.41
38630;BME280;24384;51.988;4.644;2023-06-19T09:24:42;101366.47;;;20.92;77.04
38630;BME280;24384;51.988;4.644;2023-06-19T09:27:12;101373.13;;;20.99;75.02
38630;BME280;24384;51.988;4.644;2023-06-19T09:29:42;101372.81;;;21.17;73.86
38630;BME280;24384;51.988;4.644;2023-06-19T09:32:22;101377.72;;;21.10;76.25
38630;BME280;24384;51.988;4.644;2023-06-19T09:34:49;101371.84;;;20.92;75.71
38630;BME280;24384;51.988;4.644;2023-06-19T09:37:22;101373.78;;;20.90;75.26
38630;BME280;24384;51.988;4.644;2023-06-19T09:39:52;101379.88;;;20.92;77.14
38630;BME280;24384;51.988;4.644;2023-06-19T09:42:22;101381.91;;;20.88;74.85
38630;BME280;24384;51.988;4.644;2023-06-19T09:44:49;101382.44;;;20.81;73.29
38630;BME280;24384;51.988;4.644;2023-06-19T09:47:22;101390.41;;;20.68;74.03
38630;BME280;24384;51.988;4.644;2023-06-19T09:49:53;101391.22;;;20.83;76.09
38630;BME280;24384;51.988;4.644;2023-06-19T09:52:20;101392.44;;;21.04;74.63
38630;BME280;24384;51.988;4.644;2023-06-19T09:54:47;101400.81;;;21.25;73.24
38630;BME280;24384;51.988;4.644;2023-06-19T09:57:14;101399.84;;;21.26;72.55
38630;BME280;24384;51.988;4.644;2023-06-19T09:59:40;101408.00;;;20.99;73.12
38630;BME280;24384;51.988;4.644;2023-06-19T10:02:07;101405.44;;;21.23;73.60
38630;BME280;24384;51.988;4.644;2023-06-19T10:04:48;101397.72;;;21.57;73.53
38630;BME280;24384;51.988;4.644;2023-06-19T10:07:19;101402.09;;;21.97;71.09
38630;BME280;24384;51.988;4.644;2023-06-19T10:10:24;101395.38;;;22.03;71.25
38630;BME280;24384;51.988;4.644;2023-06-19T10:12:50;101394.88;;;21.97;71.21
38630;BME280;24384;51.988;4.644;2023-06-19T10:15:17;101391.84;;;22.02;70.77
38630;BME280;24384;51.988;4.644;2023-06-19T10:17:47;101396.44;;;22.74;69.32
38630;BME280;24384;51.988;4.644;2023-06-19T10:23:05;101388.16;;;23.35;65.84
38630;BME280;24384;51.988;4.644;2023-06-19T10:25:32;101395.31;;;23.12;65.84
38630;BME280;24384;51.988;4.644;2023-06-19T10:27:58;101396.13;;;23.01;66.41
38630;BME280;24384;51.988;4.644;2023-06-19T10:30:24;101393.31;;;23.03;65.47
38630;BME280;24384;51.988;4.644;2023-06-19T10:32:50;101397.72;;;23.04;67.78
38630;BME280;24384;51.988;4.644;2023-06-19T10:35:17;101401.97;;;22.95;64.84
38630;BME280;24384;51.988;4.644;2023-06-19T10:37:43;101401.13;;;23.19;65.13
38630;BME280;24384;51.988;4.644;2023-06-19T10:40:09;101402.69;;;23.21;65.89
38630;BME280;24384;51.988;4.644;2023-06-19T10:42:39;101381.44;;;23.41;61.90
38630;BME280;24384;51.988;4.644;2023-06-19T10:45:08;101393.16;;;23.29;62.26
38630;BME280;24384;51.988;4.644;2023-06-19T10:47:34;101399.88;;;23.23;67.06
38630;BME280;24384;51.988;4.644;2023-06-19T10:49:59;101392.41;;;23.15;62.83
38630;BME280;24384;51.988;4.644;2023-06-19T10:52:28;101394.38;;;23.24;61.13
38630;BME280;24384;51.988;4.644;2023-06-19T10:54:54;101397.28;;;23.10;64.02
38630;BME280;24384;51.988;4.644;2023-06-19T10:57:26;101390.06;;;23.11;64.56
38630;BME280;24384;51.988;4.644;2023-06-19T10:59:52;101382.69;;;23.48;63.00
38630;BME280;24384;51.988;4.644;2023-06-19T11:02:18;101377.63;;;24.00;63.41
38630;BME280;24384;51.988;4.644;2023-06-19T11:04:43;101372.78;;;24.38;60.43
38630;BME280;24384;51.988;4.644;2023-06-19T11:07:09;101372.47;;;24.52;60.35
38630;BME280;24384;51.988;4.644;2023-06-19T11:09:34;101370.09;;;24.91;58.91
38630;BME280;24384;51.988;4.644;2023-06-19T11:12:01;101371.75;;;24.82;58.97
38630;BME280;24384;51.988;4.644;2023-06-19T11:14:29;101376.22;;;24.72;55.35
38630;BME280;24384;51.988;4.644;2023-06-19T11:16:55;101371.94;;;25.12;57.15
38630;BME280;24384;51.988;4.644;2023-06-19T11:19:21;101379.84;;;25.46;56.49
38630;BME280;24384;51.988;4.644;2023-06-19T11:21:50;101381.19;;;25.61;56.84
38630;BME280;24384;51.988;4.644;2023-06-19T11:24:16;101377.81;;;25.79;55.34
38630;BME280;24384;51.988;4.644;2023-06-19T11:26:44;101370.41;;;25.71;55.28
38630;BME280;24384;51.988;4.644;2023-06-19T11:29:19;101380.03;;;25.64;56.01
38630;BME280;24384;51.988;4.644;2023-06-19T11:31:46;101383.09;;;25.28;53.83
38630;BME280;24384;51.988;4.644;2023-06-19T11:34:12;101377.94;;;25.15;55.75
38630;BME280;24384;51.988;4.644;2023-06-19T11:36:38;101376.28;;;25.24;59.14
38630;BME280;24384;51.988;4.644;2023-06-19T11:39:04;101373.69;;;25.44;56.73
38630;BME280;24384;51.988;4.644;2023-06-19T11:41:35;101375.81;;;25.81;53.93
38630;BME280;24384;51.988;4.644;2023-06-19T11:44:03;101384.88;;;25.60;51.71
38630;BME280;24384;51.988;4.644;2023-06-19T11:46:30;101380.97;;;25.01;55.97
38630;BME280;24384;51.988;4.644;2023-06-19T11:49:13;101381.75;;;24.92;58.44
38630;BME280;24384;51.988;4.644;2023-06-19T11:51:39;101374.84;;;24.78;55.31
38630;BME280;24384;51.988;4.644;2023-06-19T11:54:07;101379.56;;;24.64;56.96
38630;BME280;24384;51.988;4.644;2023-06-19T11:56:34;101380.00;;;24.70;58.63
38630;BME280;24384;51.988;4.644;2023-06-19T11:59:00;101388.78;;;24.51;57.89
38630;BME280;24384;51.988;4.644;2023-06-19T12:01:25;101383.47;;;24.72;57.18
38630;BME280;24384;51.988;4.644;2023-06-19T12:03:51;101385.97;;;24.84;56.68
38630;BME280;24384;51.988;4.644;2023-06-19T12:06:17;101374.97;;;25.40;56.26
38630;BME280;24384;51.988;4.644;2023-06-19T12:08:43;101379.09;;;25.44;54.00
38630;BME280;24384;51.988;4.644;2023-06-19T12:11:08;101387.72;;;25.68;53.87
38630;BME280;24384;51.988;4.644;2023-06-19T12:13:35;101388.69;;;25.58;54.46
38630;BME280;24384;51.988;4.644;2023-06-19T12:16:00;101387.94;;;25.86;53.58
38630;BME280;24384;51.988;4.644;2023-06-19T12:18:26;101385.88;;;25.17;52.45
38630;BME280;24384;51.988;4.644;2023-06-19T12:20:51;101385.03;;;25.68;53.99
38630;BME280;24384;51.988;4.644;2023-06-19T12:23:16;101392.66;;;25.11;52.77
38630;BME280;24384;51.988;4.644;2023-06-19T12:25:41;101391.63;;;25.45;55.00
38630;BME280;24384;51.988;4.644;2023-06-19T12:28:07;101391.75;;;25.43;55.95
38630;BME280;24384;51.988;4.644;2023-06-19T12:30:33;101399.28;;;25.80;52.96
38630;BME280;24384;51.988;4.644;2023-06-19T12:32:59;101397.72;;;25.78;50.83
38630;BME280;24384;51.988;4.644;2023-06-19T12:35:24;101389.59;;;25.78;54.34
38630;BME280;24384;51.988;4.644;2023-06-19T12:37:51;101397.28;;;25.72;50.67
38630;BME280;24384;51.988;4.644;2023-06-19T12:40:16;101389.81;;;25.86;52.98
38630;BME280;24384;51.988;4.644;2023-06-19T12:42:42;101397.94;;;25.96;51.85
38630;BME280;24384;51.988;4.644;2023-06-19T12:45:09;101394.47;;;25.53;50.91
38630;BME280;24384;51.988;4.644;2023-06-19T12:47:35;101397.25;;;25.63;51.18
38630;BME280;24384;51.988;4.644;2023-06-19T12:50:00;101398.06;;;25.11;53.30